Time;durP1;ratioP1;P1;durP2;ratioP2;P2;SDS_P1;SDS_P2;PMS_P1;PMS_P2;Temp;Humidity;BMP_temperature;BMP_pressure;BME280_temperature;BME280_humidity;BME280_pressure;Samples;Min_cycle;Max_cycle;Signal;HPM_P1;HPM_P2
2022/09/12 00:01:20;;;;;;;4.63;3.00;;;;;;;25.54;53.88;101039.28;5076311;28;20488;-72
2022/09/12 00:03:51;;;;;;;3.75;3.00;;;;;;;25.53;53.91;101034.03;5076761;28;20048;-73
2022/09/12 00:06:20;;;;;;;4.47;3.28;;;;;;;25.54;53.72;101035.72;5077000;28;20045;-73
2022/09/12 00:08:50;;;;;;;4.00;3.10;;;;;;;25.54;53.70;101033.00;5077194;28;20055;-73
2022/09/12 00:11:18;;;;;;;3.92;2.70;;;;;;;25.54;53.55;101039.28;5076804;28;20381;-73
2022/09/12 00:13:45;;;;;;;4.18;2.95;;;;;;;25.54;53.56;101035.72;5076470;28;20048;-73
2022/09/12 00:16:22;;;;;;;6.65;3.13;;;;;;;25.53;53.76;101036.75;5076316;28;20479;-73
2022/09/12 00:18:51;;;;;;;4.80;2.95;;;;;;;25.53;53.47;101037.59;5076212;28;20045;-73
2022/09/12 00:21:20;;;;;;;4.45;3.08;;;;;;;25.54;53.54;101035.72;5076586;28;20041;-73
2022/09/12 00:23:48;;;;;;;3.85;2.90;;;;;;;25.52;53.42;101035.91;5076555;28;20046;-73
2022/09/12 00:26:17;;;;;;;3.92;3.08;;;;;;;25.54;53.44;101041.13;5075996;28;20067;-73
2022/09/12 00:28:44;;;;;;;3.92;2.78;;;;;;;25.54;53.51;101033.00;5076467;28;20040;-73
2022/09/12 00:31:18;;;;;;;3.45;2.80;;;;;;;25.53;53.49;101034.03;5076422;28;20037;-73
2022/09/12 00:33:45;;;;;;;4.68;3.08;;;;;;;25.53;53.27;101032.16;5076019;28;20056;-72
2022/09/12 00:36:17;;;;;;;4.70;3.20;;;;;;;25.53;53.11;101034.03;5076440;28;20051;-73
2022/09/12 00:38:45;;;;;;;4.20;3.80;;;;;;;25.52;53.28;101033.19;5076547;28;20056;-72
2022/09/12 00:41:25;;;;;;;3.42;2.80;;;;;;;25.53;53.05;101040.28;5074653;28;20045;-73
2022/09/12 00:43:55;;;;;;;4.97;3.15;;;;;;;25.53;53.02;101034.03;5076216;28;20056;-72
2022/09/12 00:46:39;;;;;;;5.10;3.30;;;;;;;25.53;53.14;101043.00;5076427;28;20048;-73
2022/09/12 00:49:13;;;;;;;5.07;3.05;;;;;;;25.53;52.85;101036.75;5075867;28;20048;-72
2022/09/12 00:51:47;;;;;;;6.68;3.15;;;;;;;25.52;52.96;101027.75;5076138;28;20056;-73
2022/09/12 00:54:25;;;;;;;3.65;2.95;;;;;;;25.53;52.88;101036.75;5075731;28;20056;-72
2022/09/12 00:56:57;;;;;;;4.25;3.25;;;;;;;25.53;52.96;101034.03;5075995;28;20052;-73
2022/09/12 00:59:31;;;;;;;4.97;3.70;;;;;;;25.54;53.01;101033.00;5076354;28;20051;-73
2022/09/12 01:01:58;;;;;;;3.38;2.85;;;;;;;25.52;53.00;101033.19;5075283;28;20056;-73
2022/09/12 01:04:27;;;;;;;4.68;3.50;;;;;;;25.52;52.75;101027.75;5075810;28;20071;-73
2022/09/12 01:06:57;;;;;;;4.32;3.20;;;;;;;25.53;52.83;101034.03;5076008;28;20045;-72
2022/09/12 01:09:26;;;;;;;4.80;3.15;;;;;;;25.53;52.72;101032.16;5075111;28;20488;-72
2022/09/12 01:11:54;;;;;;;6.28;3.20;;;;;;;25.53;52.97;101031.31;5075083;28;20044;-73
2022/09/12 01:14:21;;;;;;;3.65;3.13;;;;;;;25.52;52.97;101025.06;5075866;28;20055;-72
2022/09/12 01:16:49;;;;;;;3.92;3.42;;;;;;;25.52;52.88;101025.06;5074896;28;20049;-73
2022/09/12 01:19:50;;;;;;;3.85;2.67;;;;;;;25.52;52.83;101030.47;5075147;28;20088;-72
2022/09/12 01:22:58;;;;;;;6.57;3.25;;;;;;;25.52;52.77;101024.19;5084497;28;20064;-72
2022/09/12 01:25:29;;;;;;;3.67;3.17;;;;;;;25.53;52.71;101025.91;5075137;28;20049;-72
2022/09/12 01:28:20;;;;;;;3.60;3.20;;;;;;;25.53;52.67;101023.19;5075176;28;20048;-72
2022/09/12 01:31:01;;;;;;;5.45;2.95;;;;;;;25.52;52.96;101016.91;5074839;28;20381;-72
2022/09/12 01:33:35;;;;;;;5.05;3.20;;;;;;;25.52;53.02;101026.88;5074611;28;20416;-73
2022/09/12 01:36:23;;;;;;;4.88;3.38;;;;;;;25.51;52.90;101023.34;5075471;28;20048;-75
2022/09/12 01:39:00;;;;;;;4.65;3.30;;;;;;;25.52;52.87;101029.59;5074833;28;20048;-76
2022/09/12 01:41:58;;;;;;;5.13;3.55;;;;;;;25.52;52.69;101027.75;5075021;28;20052;-73
2022/09/12 01:44:35;;;;;;;3.40;2.83;;;;;;;25.53;53.08;101023.19;5075059;28;20051;-73
2022/09/12 01:47:13;;;;;;;5.75;2.80;;;;;;;25.52;53.00;101016.91;5074569;28;20480;-73
2022/09/12 01:49:56;;;;;;;5.85;3.50;;;;;;;25.53;52.81;101020.47;5074920;28;20052;-72
2022/09/12 01:52:31;;;;;;;4.88;3.40;;;;;;;25.52;52.71;101016.91;5074912;28;20484;-72
2022/09/12 01:55:08;;;;;;;3.90;3.20;;;;;;;25.52;52.87;101019.63;5074846;28;20396;-72
2022/09/12 01:57:51;;;;;;;5.13;2.92;;;;;;;25.53;52.70;101015.91;5074770;28;20045;-72
2022/09/12 02:00:19;;;;;;;;;;;;;;;25.51;52.89;101012.50;5074773;28;20407;-72
2022/09/12 02:02:57;;;;;;;3.97;3.22;;;;;;;25.52;52.73;101005.19;5074650;28;20364;-73
2022/09/12 02:05:39;;;;;;;5.47;3.22;;;;;;;25.52;52.91;101008.78;5074633;28;20464;-72
2022/09/12 02:08:18;;;;;;;5.77;3.37;;;;;;;25.52;52.86;101014.22;5074592;28;20059;-72
2022/09/12 02:10:54;;;;;;;5.15;3.30;;;;;;;25.51;52.91;101009.78;5074773;28;20045;-73
2022/09/12 02:13:28;;;;;;;5.30;3.30;;;;;;;25.52;52.99;101007.91;5074240;28;20052;-72
2022/09/12 02:16:04;;;;;;;4.35;3.08;;;;;;;25.52;52.89;101011.50;5073745;28;20049;-72
2022/09/12 02:18:33;;;;;;;6.95;3.50;;;;;;;25.53;52.90;101009.63;5074446;28;20045;-72
2022/09/12 02:21:05;;;;;;;3.97;3.33;;;;;;;25.52;52.80;101008.78;5074280;28;20043;-73
2022/09/12 02:23:35;;;;;;;4.43;3.20;;;;;;;25.52;52.91;101008.78;5074335;28;20064;-73
2022/09/12 02:26:12;;;;;;;4.47;2.92;;;;;;;25.51;52.81;101017.06;5074274;28;20498;-73
2022/09/12 02:28:42;;;;;;;3.55;2.92;;;;;;;25.52;52.69;101008.78;5074318;28;20059;-72
2022/09/12 02:31:20;;;;;;;3.90;2.90;;;;;;;25.51;52.74;101008.94;5073670;28;20044;-72
2022/09/12 02:34:00;;;;;;;4.75;3.10;;;;;;;25.51;52.84;101017.91;5073613;28;20056;-72
2022/09/12 02:36:31;;;;;;;4.47;3.22;;;;;;;25.51;52.73;101006.22;5074191;28;20067;-72
2022/09/12 02:38:59;;;;;;;4.10;3.13;;;;;;;25.51;52.82;101008.94;5074190;28;20048;-73
2022/09/12 02:41:27;;;;;;;6.15;3.20;;;;;;;25.50;52.72;101007.25;5072350;28;20036;-73
2022/09/12 02:43:54;;;;;;;5.28;3.05;;;;;;;25.50;52.92;101002.69;5073644;28;20048;-73
2022/09/12 02:46:37;;;;;;;5.22;3.10;;;;;;;25.50;52.74;101005.38;5074029;28;20055;-73
2022/09/12 02:49:05;;;;;;;;;;;;;;;25.49;52.95;101001.00;5074472;28;20059;-73
2022/09/12 02:51:36;;;;;;;3.50;3.10;;;;;;;25.50;52.70;101005.38;5074263;28;19943;-73
2022/09/12 02:54:06;;;;;;;4.00;3.03;;;;;;;25.50;52.75;101004.53;5073426;28;20071;-73
2022/09/12 02:56:33;;;;;;;3.70;3.05;;;;;;;25.49;52.86;101002.84;5074226;28;20045;-73
2022/09/12 02:59:05;;;;;;;3.42;3.13;;;;;;;25.49;52.71;101002.84;5073952;28;20045;-73
2022/09/12 03:01:44;;;;;;;8.18;3.42;;;;;;;25.50;52.70;101009.97;5073561;28;20048;-72
2022/09/12 03:04:36;;;;;;;3.80;3.20;;;;;;;25.48;52.76;101007.44;5073963;28;20049;-73
2022/09/12 03:07:15;;;;;;;6.63;3.17;;;;;;;25.49;52.75;101005.56;5078090;28;20049;-72
2022/09/12 03:10:12;;;;;;;3.80;2.90;;;;;;;25.48;52.80;101007.44;5076771;28;20060;-73
2022/09/12 03:12:46;;;;;;;4.13;3.15;;;;;;;25.48;52.81;101003.84;5076213;28;20385;-73
2022/09/12 03:15:37;;;;;;;4.63;3.20;;;;;;;25.48;52.79;101004.72;5077806;28;20052;-73
2022/09/12 03:18:26;;;;;;;4.75;3.00;;;;;;;25.47;52.58;101003.00;5077882;28;20138;-73
2022/09/12 03:21:17;;;;;;;3.95;3.15;;;;;;;25.47;52.75;101011.13;5077757;28;20503;-73
2022/09/12 03:24:18;;;;;;;6.93;3.30;;;;;;;25.47;52.46;101005.72;5077689;28;20041;-73
2022/09/12 03:26:51;;;;;;;5.03;3.15;;;;;;;25.47;52.77;101003.00;5077661;28;20044;-72
2022/09/12 03:29:20;;;;;;;3.20;2.80;;;;;;;25.46;52.57;101004.03;5076357;28;20055;-72
2022/09/12 03:31:52;;;;;;;4.55;3.17;;;;;;;25.48;52.50;101003.84;5075988;28;20048;-73
2022/09/12 03:34:21;;;;;;;3.90;2.97;;;;;;;25.47;52.49;101011.13;5076892;28;20052;-72
2022/09/12 03:36:49;;;;;;;4.15;3.28;;;;;;;25.46;52.44;101009.44;5077422;28;20044;-72
2022/09/12 03:39:17;;;;;;;4.53;3.28;;;;;;;25.46;52.50;101008.59;5075861;28;20056;-72
2022/09/12 03:41:44;;;;;;;3.65;2.85;;;;;;;25.47;52.66;101007.59;5075762;28;20044;-72
2022/09/12 03:44:11;;;;;;;5.82;3.33;;;;;;;25.46;52.55;101009.44;5075723;28;20492;-73
2022/09/12 03:46:38;;;;;;;3.95;3.38;;;;;;;25.45;52.55;101013.19;5076717;28;20045;-73
2022/09/12 03:49:06;;;;;;;4.40;3.15;;;;;;;25.45;52.54;101005.06;5076664;28;20048;-73
2022/09/12 03:51:33;;;;;;;4.32;3.05;;;;;;;25.45;52.57;101015.91;5077413;28;20040;-73
2022/09/12 03:54:00;;;;;;;4.05;3.00;;;;;;;25.46;52.73;101011.31;5076568;28;20048;-73
2022/09/12 03:56:28;;;;;;;3.58;3.22;;;;;;;25.44;52.67;101008.75;5076778;28;20403;-73
2022/09/12 03:58:55;;;;;;;3.38;3.08;;;;;;;25.46;52.57;101008.59;5076737;28;20044;-73
2022/09/12 04:01:23;;;;;;;4.25;3.40;;;;;;;25.44;52.34;101007.91;5076871;28;20099;-72
2022/09/12 04:03:51;;;;;;;4.35;3.25;;;;;;;25.43;51.98;101011.63;5076393;28;20396;-72
2022/09/12 04:06:20;;;;;;;5.38;3.40;;;;;;;25.39;51.76;101014.69;5077156;28;20044;-72
2022/09/12 04:08:49;;;;;;;4.38;3.80;;;;;;;25.39;51.60;101013.84;5076625;28;20051;-72
2022/09/12 04:11:19;;;;;;;4.32;3.22;;;;;;;25.36;51.84;101009.63;5076376;28;20502;-72
2022/09/12 04:13:47;;;;;;;4.13;3.72;;;;;;;25.34;51.58;101011.63;5076212;28;20041;-72
2022/09/12 04:16:16;;;;;;;5.03;3.47;;;;;;;25.32;51.26;101013.69;5077084;28;20049;-73
2022/09/12 04:18:44;;;;;;;5.20;3.72;;;;;;;25.29;51.23;101008.59;5076977;28;20056;-73
2022/09/12 04:21:18;;;;;;;4.57;3.55;;;;;;;25.29;51.33;101010.44;5076563;28;20041;-72
2022/09/12 04:23:45;;;;;;;4.05;3.65;;;;;;;25.27;51.27;101013.31;5077201;28;20378;-72
2022/09/12 04:26:14;;;;;;;4.53;3.25;;;;;;;25.27;51.22;101012.47;5075975;28;20111;-72
2022/09/12 04:28:41;;;;;;;5.00;3.65;;;;;;;25.26;51.31;101016.19;5075301;28;20395;-73
2022/09/12 04:31:16;;;;;;;5.20;3.70;;;;;;;25.24;51.30;101016.38;5075865;28;20472;-73
2022/09/12 04:33:44;;;;;;;3.83;3.00;;;;;;;25.23;51.01;101028.19;5075958;28;20056;-72
2022/09/12 04:36:16;;;;;;;4.25;3.80;;;;;;;25.23;51.20;101024.66;5075799;28;20053;-72
2022/09/12 04:38:45;;;;;;;4.03;3.47;;;;;;;25.23;51.40;101021.94;5075854;28;20044;-71
2022/09/12 04:41:15;;;;;;;5.25;3.70;;;;;;;25.22;51.22;101025.66;5074745;28;20040;-71
2022/09/12 04:43:45;;;;;;;4.65;3.78;;;;;;;25.21;50.96;101026.69;5076200;28;20040;-71
2022/09/12 04:46:15;;;;;;;5.05;3.65;;;;;;;25.18;50.88;101029.72;5076440;28;20048;-71
2022/09/12 04:48:43;;;;;;;5.55;3.78;;;;;;;25.17;50.84;101023.47;5075586;28;20048;-71
2022/09/12 04:51:16;;;;;;;5.05;3.83;;;;;;;25.17;50.67;101025.31;5075848;28;20044;-71
2022/09/12 04:53:48;;;;;;;4.32;3.70;;;;;;;25.17;50.89;101026.16;5075996;28;20405;-71
2022/09/12 04:56:16;;;;;;;5.05;3.88;;;;;;;25.15;50.71;101031.75;5074440;28;20059;-71
2022/09/12 04:58:44;;;;;;;4.32;3.60;;;;;;;25.12;50.79;101029.38;5075643;28;20161;-71
2022/09/12 05:01:15;;;;;;;3.92;3.35;;;;;;;25.12;50.80;101033.97;5075624;28;20044;-71
2022/09/12 05:03:44;;;;;;;5.53;3.75;;;;;;;25.11;50.99;101026.81;5076068;28;20052;-72
2022/09/12 05:06:14;;;;;;;6.82;4.03;;;;;;;25.11;51.22;101027.66;5075369;28;20055;-71
2022/09/12 05:08:41;;;;;;;6.30;4.43;;;;;;;25.11;50.86;101035.78;5075400;28;20052;-71
2022/09/12 05:11:12;;;;;;;3.65;3.20;;;;;;;25.10;50.73;101036.81;5075149;28;20511;-72
2022/09/12 05:13:40;;;;;;;5.93;3.67;;;;;;;25.09;50.66;101034.28;5075660;28;20052;-71
2022/09/12 05:16:11;;;;;;;5.47;2.90;;;;;;;25.08;50.83;101032.56;5075034;28;20049;-72
2022/09/12 05:18:38;;;;;;;4.72;3.58;;;;;;;25.05;50.88;101041.84;5075459;28;20484;-72
2022/09/12 05:21:08;;;;;;;6.50;4.22;;;;;;;25.04;50.95;101044.72;5075097;28;20487;-72
2022/09/12 05:23:35;;;;;;;4.35;3.67;;;;;;;25.03;50.96;101046.56;5075452;28;20044;-72
2022/09/12 05:26:05;;;;;;;3.63;3.10;;;;;;;25.02;50.88;101047.59;5075120;28;20396;-72
2022/09/12 05:28:37;;;;;;;4.82;4.15;;;;;;;25.03;50.88;101048.44;5074259;28;20044;-73
2022/09/12 05:31:13;;;;;;;5.05;3.70;;;;;;;25.03;51.18;101046.56;5075138;28;20061;-72
2022/09/12 05:33:43;;;;;;;4.22;3.63;;;;;;;25.06;51.25;101056.25;5074731;28;20477;-72
2022/09/12 05:36:14;;;;;;;4.28;3.45;;;;;;;25.05;51.42;101049.97;5075179;28;20047;-72
2022/09/12 05:38:41;;;;;;;6.28;4.50;;;;;;;25.04;50.65;101063.69;5074601;28;20056;-72
2022/09/12 05:41:11;;;;;;;5.93;4.85;;;;;;;24.95;50.13;101060.09;5074531;28;20055;-72
2022/09/12 05:43:45;;;;;;;6.78;5.80;;;;;;;24.79;50.15;101063.56;5074719;28;20044;-72
2022/09/12 05:46:18;;;;;;;6.53;5.82;;;;;;;24.63;50.23;101066.19;5074959;28;20051;-72
2022/09/12 05:48:47;;;;;;;6.30;5.72;;;;;;;24.55;50.65;101069.72;5074764;28;20048;-72
2022/09/12 05:51:25;;;;;;;6.57;4.75;;;;;;;24.49;50.75;101075.78;5074712;28;20051;-72
2022/09/12 05:53:55;;;;;;;6.22;5.63;;;;;;;24.43;50.80;101081.84;5074870;28;20392;-72
2022/09/12 05:56:27;;;;;;;6.57;5.20;;;;;;;24.39;51.02;101077.75;5075263;28;20406;-71
2022/09/12 05:59:00;;;;;;;9.23;5.63;;;;;;;24.34;51.05;101077.31;5073845;28;20047;-71
2022/09/12 06:01:29;;;;;;;;;;;;;;;24.28;51.26;101080.69;5074345;28;20281;-71
2022/09/12 06:03:59;;;;;;;10.55;5.60;;;;;;;24.28;51.53;101078.81;5076634;28;19924;-71
2022/09/12 06:06:28;;;;;;;5.03;4.25;;;;;;;24.32;51.67;101082.06;5091346;28;20048;-71
2022/09/12 06:08:58;;;;;;;6.65;4.70;;;;;;;24.36;51.55;101072.63;5093941;28;20051;-71
2022/09/12 06:11:28;;;;;;;7.55;4.78;;;;;;;24.41;51.59;101073.00;5094201;28;20055;-71
2022/09/12 06:13:57;;;;;;;7.03;4.55;;;;;;;24.43;51.85;101076.44;5093024;28;20055;-71
2022/09/12 06:16:29;;;;;;;7.30;5.43;;;;;;;24.47;52.01;101079.63;5094708;28;20063;-71
2022/09/12 06:18:59;;;;;;;10.32;5.30;;;;;;;24.49;51.94;101074.94;5093566;28;20058;-71
2022/09/12 06:21:29;;;;;;;6.28;4.70;;;;;;;24.53;51.99;101068.19;5094238;28;20400;-71
2022/09/12 06:24:00;;;;;;;5.63;4.40;;;;;;;24.55;52.14;101069.72;5094408;28;20051;-71
2022/09/12 06:26:28;;;;;;;7.13;4.00;;;;;;;24.60;52.25;101064.69;5094304;28;20412;-71
2022/09/12 06:28:58;;;;;;;5.05;3.40;;;;;;;24.65;52.13;101065.03;5094145;28;20044;-71
2022/09/12 06:31:32;;;;;;;7.90;3.97;;;;;;;24.70;52.09;101066.41;5094752;28;20044;-71
2022/09/12 06:34:01;;;;;;;8.10;3.88;;;;;;;24.75;51.98;101072.19;5094066;28;20381;-71
2022/09/12 06:36:32;;;;;;;4.85;3.70;;;;;;;24.78;51.98;101061.03;5092720;28;20052;-71
2022/09/12 06:39:06;;;;;;;7.05;3.20;;;;;;;24.81;51.87;101066.13;5094133;28;20055;-72
2022/09/12 06:41:33;;;;;;;5.70;3.45;;;;;;;24.85;51.95;101064.78;5093999;28;20052;-72
2022/09/12 06:44:01;;;;;;;8.02;4.28;;;;;;;24.87;52.02;101060.06;5094024;28;20067;-72
2022/09/12 06:46:30;;;;;;;6.35;4.60;;;;;;;24.87;51.92;101057.34;5094248;28;20048;-73
2022/09/12 06:48:59;;;;;;;7.85;5.45;;;;;;;24.85;51.86;101065.63;5093883;28;20058;-70
2022/09/12 06:51:27;;;;;;;7.45;5.88;;;;;;;24.81;51.90;101075.09;5093516;28;20040;-72
2022/09/12 06:53:56;;;;;;;7.68;4.60;;;;;;;24.78;52.17;101075.41;5093621;28;20036;-73
2022/09/12 06:56:25;;;;;;;6.45;4.55;;;;;;;24.77;52.23;101083.72;5094405;28;20051;-73
2022/09/12 06:58:56;;;;;;;9.57;6.00;;;;;;;24.76;52.32;101084.72;5094142;28;20479;-73
2022/09/12 07:01:24;;;;;;;9.02;6.82;;;;;;;24.71;52.39;101078.94;5093979;28;20044;-72
2022/09/12 07:03:55;;;;;;;7.70;6.80;;;;;;;24.65;52.58;101081.28;5093859;28;20036;-73
2022/09/12 07:06:28;;;;;;;10.90;7.53;;;;;;;24.58;52.70;101071.25;5093498;28;20051;-74
2022/09/12 07:09:02;;;;;;;13.73;7.43;;;;;;;24.52;52.54;101072.75;5092467;28;20070;-73
2022/09/12 07:11:32;;;;;;;9.15;6.47;;;;;;;24.50;53.17;101077.47;5093563;28;20048;-72
2022/09/12 07:14:01;;;;;;;8.50;7.38;;;;;;;24.47;53.36;101075.09;5093839;28;20051;-74
2022/09/12 07:16:29;;;;;;;8.80;6.82;;;;;;;24.46;53.11;101080.66;5093192;28;20048;-72
2022/09/12 07:18:59;;;;;;;9.38;7.40;;;;;;;24.44;53.35;101077.28;5093781;28;20044;-72
2022/09/12 07:21:27;;;;;;;10.70;8.02;;;;;;;24.40;53.29;101074.03;5093653;28;20048;-72
2022/09/12 07:23:56;;;;;;;8.98;7.93;;;;;;;24.34;53.46;101075.47;5092700;28;20400;-73
2022/09/12 07:26:28;;;;;;;9.63;7.50;;;;;;;24.30;53.40;101076.78;5093460;28;20048;-72
2022/09/12 07:28:57;;;;;;;8.15;6.60;;;;;;;24.30;53.59;101084.06;5093603;28;20052;-73
2022/09/12 07:31:44;;;;;;;10.45;8.82;;;;;;;24.30;53.79;101074.09;5093276;28;20048;-72
2022/09/12 07:34:12;;;;;;;9.50;8.18;;;;;;;24.30;53.86;101075.94;5093402;28;20059;-72
2022/09/12 07:36:40;;;;;;;12.68;9.98;;;;;;;24.28;53.78;101081.53;5093004;28;20040;-73
2022/09/12 07:39:07;;;;;;;11.27;9.85;;;;;;;24.23;53.52;101078.47;5093133;28;20054;-73
2022/09/12 07:41:34;;;;;;;14.02;10.48;;;;;;;24.18;53.19;101078.06;5093382;28;20051;-72
2022/09/12 07:44:02;;;;;;;14.07;9.32;;;;;;;24.14;53.64;101072.09;5093207;28;20052;-72
2022/09/12 07:46:30;;;;;;;10.25;8.00;;;;;;;24.15;53.91;101073.84;5093218;28;20049;-72
2022/09/12 07:48:59;;;;;;;10.80;6.30;;;;;;;24.18;53.81;101073.53;5092915;28;20407;-74
2022/09/12 07:51:29;;;;;;;10.45;7.50;;;;;;;24.23;53.67;101075.75;5095044;28;20048;-73
2022/09/12 07:53:57;;;;;;;9.82;8.25;;;;;;;24.23;52.96;101075.75;5096505;28;20051;-73
2022/09/12 07:56:26;;;;;;;9.68;7.40;;;;;;;24.25;52.70;101081.00;5096927;28;20044;-72
2022/09/12 07:58:58;;;;;;;9.38;7.40;;;;;;;24.24;52.69;101079.31;5097290;28;20044;-73
2022/09/12 08:01:26;;;;;;;9.18;7.57;;;;;;;24.23;52.67;101085.72;5097013;28;20044;-72
2022/09/12 08:03:56;;;;;;;7.55;6.05;;;;;;;24.21;52.63;101079.59;5096476;28;20036;-72
2022/09/12 08:06:26;;;;;;;7.22;4.57;;;;;;;24.23;53.05;101078.47;5097103;28;20055;-73
2022/09/12 08:08:55;;;;;;;8.77;7.10;;;;;;;24.28;53.12;101075.28;5096553;28;20051;-73
2022/09/12 08:11:24;;;;;;;9.15;5.07;;;;;;;24.28;53.26;101083.38;5096161;28;20044;-73
2022/09/12 08:13:54;;;;;;;5.13;4.35;;;;;;;24.34;53.17;101074.63;5096536;28;20372;-72
2022/09/12 08:16:25;;;;;;;5.50;4.07;;;;;;;24.41;53.24;101073.00;5096667;28;20487;-73
2022/09/12 08:18:53;;;;;;;6.00;3.95;;;;;;;24.48;53.33;101071.38;5096349;28;20059;-73
2022/09/12 08:21:28;;;;;;;7.05;4.47;;;;;;;24.53;53.19;101066.31;5096762;28;20051;-71
2022/09/12 08:24:04;;;;;;;6.47;4.10;;;;;;;24.61;53.23;101074.50;5096320;28;20032;-72
2022/09/12 08:26:33;;;;;;;5.68;3.67;;;;;;;24.67;53.16;101075.69;5096230;28;20044;-72
2022/09/12 08:29:01;;;;;;;6.80;4.18;;;;;;;24.72;52.89;101070.66;5096178;28;20051;-73
2022/09/12 08:31:30;;;;;;;5.95;3.70;;;;;;;24.76;53.17;101079.31;5096225;28;20400;-72
2022/09/12 08:33:59;;;;;;;5.13;3.67;;;;;;;24.79;52.79;101079.81;5096168;28;20044;-73
2022/09/12 08:36:28;;;;;;;5.40;3.60;;;;;;;24.83;52.91;101080.34;5096462;28;20044;-72
2022/09/12 08:38:58;;;;;;;6.63;3.80;;;;;;;24.86;52.96;101083.56;5096519;28;20088;-73
2022/09/12 08:41:31;;;;;;;3.88;3.47;;;;;;;24.88;52.94;101084.28;5096559;28;20051;-73
2022/09/12 08:44:26;;;;;;;5.70;3.40;;;;;;;24.91;52.89;101075.84;5096163;28;20055;-72
2022/09/12 08:47:27;;;;;;;5.82;3.72;;;;;;;24.93;52.90;101070.25;5095748;28;20484;-73
2022/09/12 08:50:14;;;;;;;11.07;4.15;;;;;;;24.97;52.64;101079.75;5096294;28;20044;-73
2022/09/12 08:53:01;;;;;;;8.38;4.28;;;;;;;25.00;52.79;101073.16;5095642;28;20048;-73
2022/09/12 08:55:29;;;;;;;6.40;4.00;;;;;;;25.02;52.69;101077.38;5095987;28;20047;-73
2022/09/12 08:57:59;;;;;;;7.05;4.00;;;;;;;25.04;53.03;101074.53;5096143;28;20047;-72
2022/09/12 09:00:36;;;;;;;9.02;4.07;;;;;;;25.05;52.70;101074.34;5095758;28;20047;-74
2022/09/12 09:03:16;;;;;;;5.80;3.30;;;;;;;25.07;52.75;101075.03;5094886;28;20048;-73
2022/09/12 09:06:07;;;;;;;6.00;3.55;;;;;;;25.07;52.67;101075.03;5094249;28;20052;-73
2022/09/12 09:08:40;;;;;;;6.25;3.40;;;;;;;25.11;52.85;101078.28;5095421;28;20040;-73
2022/09/12 09:11:17;;;;;;;4.53;2.95;;;;;;;25.12;52.64;101080.00;5096197;28;20052;-73
2022/09/12 09:16:49;;;;;;;5.63;3.63;;;;;;;25.16;52.68;101073.25;5095666;28;20353;-73
2022/09/12 09:19:22;;;;;;;5.35;3.20;;;;;;;25.17;52.57;101071.38;5095629;28;20055;-73
2022/09/12 09:21:56;;;;;;;5.47;2.83;;;;;;;25.18;52.62;101065.78;5095145;28;20048;-73
2022/09/12 09:24:37;;;;;;;5.40;3.15;;;;;;;25.20;52.97;101068.31;5095448;28;20040;-73
2022/09/12 09:27:19;;;;;;;6.85;3.45;;;;;;;25.20;53.72;101069.19;5095386;28;20048;-73
2022/09/12 09:30:16;;;;;;;5.70;3.55;;;;;;;25.21;53.32;101065.47;5095134;28;20048;-73
2022/09/12 09:32:49;;;;;;;6.18;3.33;;;;;;;25.20;53.26;101062.91;5095008;28;20071;-73
2022/09/12 09:35:20;;;;;;;5.22;3.15;;;;;;;25.21;53.23;101065.47;5095493;28;20048;-73
2022/09/12 09:38:01;;;;;;;6.00;4.03;;;;;;;25.22;53.77;101063.59;5079470;28;20052;-73
2022/09/12 09:40:53;;;;;;;4.18;3.55;;;;;;;25.23;53.30;101063.44;5074953;28;20040;-72
2022/09/12 09:43:23;;;;;;;5.45;2.83;;;;;;;25.24;53.72;101058.84;5074704;28;20040;-72
2022/09/12 09:45:51;;;;;;;7.40;3.25;;;;;;;25.25;54.34;101055.16;5075354;28;20352;-72
2022/09/12 09:48:27;;;;;;;6.05;2.72;;;;;;;25.25;54.02;101055.16;5074349;28;20056;-72
2022/09/12 09:50:58;;;;;;;4.90;2.92;;;;;;;25.25;53.43;101055.16;5074160;28;20044;-72
2022/09/12 09:53:33;;;;;;;5.35;3.30;;;;;;;25.25;53.66;101049.72;5072587;28;20049;-72
2022/09/12 09:56:07;;;;;;;6.28;2.80;;;;;;;25.24;53.76;101053.44;5073686;28;20041;-72
2022/09/12 09:58:35;;;;;;;5.05;3.20;;;;;;;25.23;53.29;101054.47;5073742;28;20059;-71
2022/09/12 10:01:05;;;;;;;4.20;2.85;;;;;;;25.21;52.43;101051.91;5073425;28;20040;-72
2022/09/12 10:03:39;;;;;;;2.42;2.10;;;;;;;25.22;52.67;101045.47;5073631;28;20051;-72
2022/09/12 10:06:19;;;;;;;7.00;2.78;;;;;;;25.20;53.21;101057.50;5073727;28;20049;-72
2022/09/12 10:08:48;;;;;;;4.30;2.10;;;;;;;25.20;53.43;101055.66;5073937;28;20067;-72
2022/09/12 10:11:21;;;;;;;4.88;3.20;;;;;;;25.21;53.65;101045.66;5074371;28;20497;-72
2022/09/12 10:13:56;;;;;;;;;;;;;;;25.21;54.32;101048.38;5074587;28;20047;-72
2022/09/12 10:16:24;;;;;;;3.83;2.60;;;;;;;25.22;54.26;101047.34;5073724;28;19927;-72
2022/09/12 10:18:53;;;;;;;3.78;2.28;;;;;;;25.22;54.35;101042.78;5074548;28;20457;-72
2022/09/12 10:21:34;;;;;;;3.33;2.10;;;;;;;25.21;53.59;101043.78;5074286;28;20048;-72
2022/09/12 10:24:23;;;;;;;4.97;2.50;;;;;;;25.22;53.32;101036.50;5073906;28;20040;-72
2022/09/12 10:27:07;;;;;;;5.50;2.50;;;;;;;25.22;53.62;101031.09;5073966;28;20460;-72
2022/09/12 10:29:42;;;;;;;4.65;2.60;;;;;;;25.22;54.18;101045.47;5073913;28;20044;-72
2022/09/12 10:32:11;;;;;;;3.58;2.50;;;;;;;25.22;53.88;101033.78;5073617;28;20500;-73
2022/09/12 10:34:44;;;;;;;3.42;2.08;;;;;;;25.23;53.87;101035.50;5073669;28;20072;-72
2022/09/12 10:37:36;;;;;;;3.92;2.60;;;;;;;25.25;52.99;101037.03;5073670;28;20484;-72
2022/09/12 10:40:08;;;;;;;3.60;2.22;;;;;;;25.26;52.79;101029.75;5073801;28;20041;-72
2022/09/12 10:42:50;;;;;;;2.97;2.35;;;;;;;25.26;53.90;101027.03;5073579;28;20045;-72
2022/09/12 10:45:20;;;;;;;2.60;2.40;;;;;;;25.26;53.18;101022.47;5073826;28;20067;-72
2022/09/12 10:47:48;;;;;;;6.00;2.67;;;;;;;25.28;53.40;101027.69;5073651;28;20048;-72
2022/09/12 10:50:42;;;;;;;3.50;2.50;;;;;;;25.26;53.88;101017.03;5073876;28;20044;-71
2022/09/12 10:53:13;;;;;;;4.13;2.70;;;;;;;25.28;53.58;101019.56;5073849;28;20044;-72
2022/09/12 10:56:04;;;;;;;2.42;1.85;;;;;;;25.27;53.41;101017.88;5072851;28;20052;-72
2022/09/12 10:58:47;;;;;;;4.13;2.40;;;;;;;25.28;53.31;101016.88;5073525;28;20052;-72
2022/09/12 11:01:35;;;;;;;4.07;2.22;;;;;;;25.26;51.94;101008.06;5073453;28;20048;-72
2022/09/12 11:04:32;;;;;;;3.33;2.70;;;;;;;25.25;51.02;101011.78;5073545;28;20049;-72
2022/09/12 11:07:18;;;;;;;3.58;2.10;;;;;;;25.26;51.47;101008.91;5073842;28;20048;-72
2022/09/12 11:09:54;;;;;;;3.88;2.40;;;;;;;25.26;51.93;101010.78;5073626;28;20048;-72
2022/09/12 11:13:05;;;;;;;4.25;1.88;;;;;;;25.26;52.34;101013.50;5072929;28;20479;-72
2022/09/12 11:16:06;;;;;;;2.85;1.90;;;;;;;25.26;51.86;101010.78;5072322;28;20041;-71
2022/09/12 11:19:10;;;;;;;3.45;2.30;;;;;;;25.28;52.33;101011.44;5073182;28;20048;-73
2022/09/12 11:22:03;;;;;;;3.78;3.10;;;;;;;25.28;50.99;101001.47;5072957;28;20368;-73
2022/09/12 11:24:30;;;;;;;5.50;2.40;;;;;;;25.30;50.26;101006.72;5072474;28;20048;-71
2022/09/12 11:27:27;;;;;;;7.10;2.75;;;;;;;25.30;49.83;101009.44;5076004;28;20388;-71
2022/09/12 11:30:07;;;;;;;5.22;3.22;;;;;;;25.29;49.90;101003.16;5095634;28;20558;-72
2022/09/12 11:33:04;;;;;;;4.72;2.15;;;;;;;25.29;50.20;101000.44;5113076;28;20043;-72
2022/09/12 11:35:39;;;;;;;4.72;2.50;;;;;;;25.30;49.99;100996.72;5116017;28;20063;-72
2022/09/12 11:38:43;;;;;;;4.32;2.58;;;;;;;25.30;49.57;100999.44;5116028;28;20463;-72
2022/09/12 11:41:22;;;;;;;3.72;2.63;;;;;;;25.31;50.31;100998.41;5115621;28;20529;-72
2022/09/12 11:43:59;;;;;;;3.00;2.38;;;;;;;25.29;49.51;100991.47;5115546;28;20063;-72
2022/09/12 11:46:37;;;;;;;4.45;2.40;;;;;;;25.30;48.95;100993.16;5115489;28;20780;-73
2022/09/12 11:49:12;;;;;;;2.97;2.40;;;;;;;25.30;48.82;100991.31;5115529;28;20051;-72
2022/09/12 11:51:49;;;;;;;2.80;2.30;;;;;;;25.31;48.99;100986.72;5115948;28;20438;-72
2022/09/12 11:54:22;;;;;;;2.97;2.40;;;;;;;25.31;49.04;100979.44;5115310;28;20055;-72
2022/09/12 11:56:54;;;;;;;;;;;;;;;25.32;49.07;100985.69;5115624;28;20051;-73
2022/09/12 11:59:24;;;;;;;4.43;2.00;;;;;;;25.32;48.69;100975.75;5115333;28;19920;-73
2022/09/12 12:01:57;;;;;;;3.80;2.35;;;;;;;25.32;49.11;100977.56;5115442;28;20512;-72